Aviation Digital Data Service (ADDS)

Output produced by METARs form (1316 UTC 26 March 2019)
found at http://www.aviationweather.gov/metar/data/
 
FBFT 261300Z VRB07KT 9999 SCT035 36/10 Q1015
TAF FBFT 261200Z 2615/2624 09008KT 9999 SCT030
       
TAF FBFT 261200Z 2615/2624 09008KT 9999 SCT030
       
FBGZ 260600Z 2609/2618 VRB02KT CAVOK
       
FBKE 261300Z 09011G21KT 040V110 9999 SCT030 37/08 Q1014
TAF FBKE 261200Z 2615/2624 10007KT 9999 SCT030
       
FBMN 261300Z 04004KT 9999 BKN030 35/12 Q1014
TAF FBMN 261200Z 2615/2624 13008KT 9999 SCT030
       
FBSP 261300Z /////KT 9999 FEW030 37/15 Q1014
TAF FBSP 261200Z 2615/2624 15008KT 9999 SCT030
       
FBSK 261300Z 28007KT 230V360 9999 SCT030 38/M00 Q1014 NOSIG
TAF FBSK 260900Z 2612/2718 23008KT CAVOK 
     BECMG 2704/2706 05016KT BKN0 14 
     BECMG 2710/2712 SCT025
       
FBFT 261300Z VRB07KT 9999 SCT035 36/10 Q1015
TAF FBFT 261200Z 2615/2624 09008KT 9999 SCT030
       
TAF FBFT 261200Z 2615/2624 09008KT 9999 SCT030